Time;durP1;ratioP1;P1;durP2;ratioP2;P2;SDS_P1;SDS_P2;PMS_P1;PMS_P2;Temp;Humidity;BMP_temperature;BMP_pressure;BME280_temperature;BME280_humidity;BME280_pressure;Samples;Min_cycle;Max_cycle;Signal;HPM_P1;HPM_P2
2023/11/08 00:01:10;;;;;;;8.98;2.20;;;8.40;99.90;;;;;;4974902;28;20040;-62
2023/11/08 00:03:36;;;;;;;7.00;2.22;;;8.30;99.90;;;;;;4980767;28;20026;-62
2023/11/08 00:06:01;;;;;;;6.82;2.40;;;8.30;99.90;;;;;;4983592;28;20035;-62
2023/11/08 00:08:27;;;;;;;8.23;2.83;;;8.30;99.90;;;;;;4979305;28;20055;-62
2023/11/08 00:10:54;;;;;;;7.35;2.90;;;8.40;99.90;;;;;;4983778;28;20030;-62
2023/11/08 00:13:20;;;;;;;7.25;2.53;;;8.30;99.90;;;;;;4981428;28;20105;-65
2023/11/08 00:15:48;;;;;;;8.57;2.50;;;8.30;99.90;;;;;;4982946;28;20551;-65
2023/11/08 00:18:14;;;;;;;7.45;2.40;;;8.30;99.90;;;;;;4958010;28;20113;-63
2023/11/08 00:20:41;;;;;;;8.98;2.90;;;8.40;99.90;;;;;;4981973;28;20525;-65
2023/11/08 00:23:07;;;;;;;9.95;2.53;;;8.30;99.90;;;;;;4979244;28;20035;-65
2023/11/08 00:25:33;;;;;;;7.18;2.38;;;8.30;99.90;;;;;;4979225;28;20508;-65
2023/11/08 00:27:58;;;;;;;11.88;2.65;;;8.40;99.90;;;;;;4981326;28;20030;-65
2023/11/08 00:30:24;;;;;;;6.97;2.55;;;8.30;99.90;;;;;;4981447;28;20126;-63
2023/11/08 00:32:50;;;;;;;6.85;3.08;;;8.20;99.90;;;;;;4980270;28;20114;-65
2023/11/08 00:35:16;;;;;;;7.10;2.58;;;8.10;99.90;;;;;;4982507;28;20684;-65
2023/11/08 00:37:42;;;;;;;7.30;2.75;;;8.00;99.90;;;;;;4979147;28;20023;-65
2023/11/08 00:40:08;;;;;;;7.47;2.50;;;7.90;99.90;;;;;;4983208;28;20022;-65
2023/11/08 00:42:34;;;;;;;7.65;2.33;;;7.90;99.90;;;;;;4977750;28;20208;-65
2023/11/08 00:45:00;;;;;;;9.07;2.70;;;7.80;99.90;;;;;;4980242;28;20109;-65
2023/11/08 00:47:25;;;;;;;6.20;2.53;;;7.80;99.90;;;;;;4984040;28;20461;-65
2023/11/08 00:49:51;;;;;;;8.43;2.80;;;7.80;99.90;;;;;;4958453;28;20049;-65
2023/11/08 00:52:21;;;;;;;13.45;2.80;;;7.80;99.90;;;;;;4974675;28;20154;-65
2023/11/08 00:54:47;;;;;;;8.73;3.00;;;7.80;99.90;;;;;;4980557;28;20139;-65
2023/11/08 00:57:14;;;;;;;8.82;3.22;;;7.80;99.90;;;;;;4974332;28;20031;-65
2023/11/08 00:59:41;;;;;;;8.88;3.05;;;7.80;99.90;;;;;;4982362;28;20045;-65
2023/11/08 01:02:07;;;;;;;7.47;2.35;;;7.80;99.90;;;;;;4981774;28;20023;-65
2023/11/08 01:04:33;;;;;;;4.72;1.83;;;7.70;99.90;;;;;;4982531;28;20022;-65
2023/11/08 01:07:01;;;;;;;10.88;3.05;;;7.70;99.90;;;;;;4979465;28;20038;-65
2023/11/08 01:09:26;;;;;;;9.60;2.95;;;7.70;99.90;;;;;;4977963;28;20058;-65
2023/11/08 01:11:54;;;;;;;8.65;3.03;;;7.70;99.90;;;;;;4978003;28;20035;-65
2023/11/08 01:14:21;;;;;;;9.48;2.65;;;7.70;99.90;;;;;;4982793;28;20018;-65
2023/11/08 01:16:46;;;;;;;9.15;2.97;;;7.70;99.90;;;;;;4974591;28;20042;-65
2023/11/08 01:19:14;;;;;;;8.48;2.70;;;7.70;99.90;;;;;;4979982;28;20740;-65
2023/11/08 01:21:45;;;;;;;7.90;3.08;;;7.70;99.90;;;;;;4975209;28;20035;-61
2023/11/08 01:24:13;;;;;;;7.45;2.92;;;7.70;99.90;;;;;;4984032;28;20022;-62
2023/11/08 01:26:39;;;;;;;8.57;2.88;;;7.70;99.90;;;;;;4975688;28;20069;-62
2023/11/08 01:29:05;;;;;;;8.27;2.40;;;7.70;99.90;;;;;;4980045;28;20101;-62
2023/11/08 01:31:30;;;;;;;5.57;2.28;;;7.80;99.90;;;;;;4980159;28;20804;-62
2023/11/08 01:33:58;;;;;;;6.93;2.70;;;7.80;99.90;;;;;;4978895;28;20027;-62
2023/11/08 01:36:26;;;;;;;6.40;2.15;;;7.80;99.90;;;;;;4981413;28;20027;-62
2023/11/08 01:38:51;;;;;;;7.97;2.70;;;7.90;99.90;;;;;;4983986;28;20069;-62
2023/11/08 01:41:19;;;;;;;8.45;2.90;;;7.80;99.90;;;;;;4984646;28;20872;-62
2023/11/08 01:43:46;;;;;;;6.07;2.28;;;7.80;99.90;;;;;;4980131;28;20019;-63
2023/11/08 01:46:22;;;;;;;7.10;2.15;;;7.70;99.90;;;;;;4987900;28;20497;-63
2023/11/08 01:48:49;;;;;;;8.90;2.30;;;7.80;99.90;;;;;;4985932;28;20026;-63
2023/11/08 01:51:16;;;;;;;6.95;2.38;;;7.80;99.90;;;;;;4981524;28;20029;-63
2023/11/08 01:53:43;;;;;;;6.68;2.25;;;7.80;99.90;;;;;;4977747;28;20057;-63
2023/11/08 01:56:12;;;;;;;7.47;2.75;;;7.80;99.90;;;;;;4985648;28;20034;-63
2023/11/08 01:58:38;;;;;;;8.65;2.38;;;7.70;99.90;;;;;;4981213;28;20030;-63
2023/11/08 02:01:16;;;;;;;13.63;3.38;;;7.70;99.90;;;;;;4983445;28;20394;-63
2023/11/08 02:03:42;;;;;;;6.70;2.42;;;7.70;99.90;;;;;;4983771;28;20402;-63
2023/11/08 02:06:10;;;;;;;6.90;2.28;;;7.70;99.90;;;;;;4978174;28;20045;-63
2023/11/08 02:08:38;;;;;;;8.07;2.78;;;7.70;99.90;;;;;;4981285;28;20082;-63
2023/11/08 02:11:05;;;;;;;8.65;2.90;;;7.70;99.90;;;;;;4985587;28;20034;-63
2023/11/08 02:13:33;;;;;;;7.35;2.58;;;7.70;99.90;;;;;;4977464;28;20031;-63
2023/11/08 02:15:59;;;;;;;8.32;2.63;;;7.70;99.90;;;;;;4981829;28;20037;-63
2023/11/08 02:18:25;;;;;;;9.43;2.83;;;7.70;99.90;;;;;;4983784;28;20467;-61
2023/11/08 02:20:52;;;;;;;9.23;2.60;;;7.70;99.90;;;;;;4985534;28;20037;-62
2023/11/08 02:23:17;;;;;;;9.23;3.00;;;7.70;99.90;;;;;;4984241;28;20031;-62
2023/11/08 02:25:43;;;;;;;10.70;3.33;;;7.80;99.90;;;;;;4988579;28;20466;-62
2023/11/08 02:28:10;;;;;;;9.30;2.85;;;7.70;99.90;;;;;;4982776;28;20022;-63
2023/11/08 02:30:35;;;;;;;8.48;2.92;;;7.70;99.90;;;;;;4985095;28;20101;-63
2023/11/08 02:33:04;;;;;;;10.93;3.47;;;7.80;99.90;;;;;;4986298;28;20066;-62
2023/11/08 02:35:30;;;;;;;8.35;3.05;;;7.80;99.90;;;;;;4983174;28;20081;-62
2023/11/08 02:37:58;;;;;;;6.90;3.13;;;7.80;99.90;;;;;;4986622;28;20460;-62
2023/11/08 02:40:23;;;;;;;9.55;3.30;;;7.80;99.90;;;;;;4985109;28;20031;-62
2023/11/08 02:42:51;;;;;;;8.20;3.22;;;7.80;99.90;;;;;;4984043;28;20057;-62
2023/11/08 02:45:17;;;;;;;6.95;2.90;;;7.80;99.90;;;;;;4985821;28;20030;-62
2023/11/08 02:47:43;;;;;;;7.43;2.60;;;7.90;99.90;;;;;;4984652;28;20036;-62
2023/11/08 02:50:08;;;;;;;7.85;3.00;;;7.90;99.90;;;;;;4979342;28;20026;-62
2023/11/08 02:52:34;;;;;;;10.65;3.25;;;7.80;99.90;;;;;;4985942;28;20425;-62
2023/11/08 02:55:01;;;;;;;7.18;2.38;;;7.80;99.90;;;;;;4979440;28;20030;-62
2023/11/08 02:57:27;;;;;;;12.73;3.28;;;7.70;99.90;;;;;;4953954;28;20031;-62
2023/11/08 02:59:53;;;;;;;9.27;2.95;;;7.80;99.90;;;;;;4985524;28;20413;-62
2023/11/08 03:02:21;;;;;;;10.05;2.90;;;7.80;99.90;;;;;;4985937;28;20060;-62
2023/11/08 03:04:47;;;;;;;10.23;3.20;;;7.80;99.90;;;;;;4984752;28;20471;-62
2023/11/08 03:07:12;;;;;;;6.00;2.22;;;7.80;99.90;;;;;;4983035;28;20081;-62
2023/11/08 03:09:39;;;;;;;7.28;2.83;;;7.70;99.90;;;;;;4986451;28;20091;-62
2023/11/08 03:12:05;;;;;;;8.35;3.38;;;7.70;99.90;;;;;;4986606;28;20045;-62
2023/11/08 03:14:30;;;;;;;10.02;3.00;;;7.70;99.90;;;;;;4951356;28;20070;-62
2023/11/08 03:16:57;;;;;;;12.80;3.60;;;7.60;99.90;;;;;;4985466;28;20074;-62
2023/11/08 03:19:23;;;;;;;15.13;3.80;;;7.70;99.90;;;;;;4984145;28;20030;-62
2023/11/08 03:21:50;;;;;;;13.90;6.00;;;7.60;99.90;;;;;;4949117;28;20387;-62
2023/11/08 03:24:16;;;;;;;14.48;6.43;;;7.60;99.90;;;;;;4981678;28;20059;-62
2023/11/08 03:26:44;;;;;;;20.63;6.72;;;7.40;99.90;;;;;;4982216;28;20065;-62
2023/11/08 03:29:10;;;;;;;21.73;9.55;;;7.50;99.90;;;;;;4984770;28;20026;-62
2023/11/08 03:31:36;;;;;;;20.15;8.13;;;7.40;99.90;;;;;;4983220;28;20026;-60
2023/11/08 03:34:03;;;;;;;18.35;7.00;;;7.40;99.90;;;;;;4982095;28;20752;-61
2023/11/08 03:36:29;;;;;;;15.82;5.82;;;7.40;99.90;;;;;;4984215;28;20037;-61
2023/11/08 03:38:59;;;;;;;11.48;4.10;;;7.40;99.90;;;;;;4949525;28;20038;-62
2023/11/08 03:41:25;;;;;;;14.75;3.45;;;7.40;99.90;;;;;;4981590;28;20019;-64
2023/11/08 03:43:55;;;;;;;8.45;2.88;;;7.50;99.90;;;;;;4980493;28;20502;-64
2023/11/08 03:46:21;;;;;;;7.27;2.90;;;7.50;99.90;;;;;;4983328;28;20030;-64
2023/11/08 03:48:58;;;;;;;11.18;2.75;;;7.50;99.90;;;;;;4981135;28;20027;-64
2023/11/08 03:51:26;;;;;;;9.32;3.13;;;7.70;99.90;;;;;;4982144;28;20045;-65
2023/11/08 03:53:51;;;;;;;10.70;2.95;;;7.70;99.90;;;;;;4981080;28;20022;-65
2023/11/08 03:56:17;;;;;;;10.20;3.00;;;7.60;99.90;;;;;;4985035;28;20474;-65
2023/11/08 03:58:43;;;;;;;7.95;2.83;;;7.60;99.90;;;;;;4979884;28;20035;-63
2023/11/08 04:01:09;;;;;;;12.00;3.00;;;7.50;99.90;;;;;;4982452;28;20111;-65
2023/11/08 04:03:34;;;;;;;8.68;2.90;;;7.50;99.90;;;;;;4982418;28;20045;-65
2023/11/08 04:06:00;;;;;;;10.48;3.10;;;7.50;99.90;;;;;;4980751;28;20086;-65
2023/11/08 04:08:26;;;;;;;8.30;3.10;;;7.50;99.90;;;;;;4984019;28;20058;-65
2023/11/08 04:10:52;;;;;;;7.60;3.30;;;7.50;99.90;;;;;;4980518;28;20042;-65
2023/11/08 04:13:18;;;;;;;14.02;3.92;;;7.50;99.90;;;;;;4982050;28;20025;-65
2023/11/08 04:15:45;;;;;;;9.73;3.40;;;7.50;99.90;;;;;;4981785;28;20061;-65
2023/11/08 04:18:11;;;;;;;12.73;3.47;;;7.50;99.90;;;;;;4983584;28;20034;-65
2023/11/08 04:20:38;;;;;;;7.63;2.80;;;7.50;99.90;;;;;;4980237;28;20422;-65
2023/11/08 04:23:04;;;;;;;15.18;3.40;;;7.60;99.90;;;;;;4984286;28;20136;-65
2023/11/08 04:25:30;;;;;;;7.22;2.90;;;7.50;99.90;;;;;;4979898;28;20054;-65
2023/11/08 04:27:55;;;;;;;10.85;3.10;;;7.50;99.90;;;;;;4983125;28;20063;-65
2023/11/08 04:30:23;;;;;;;8.98;2.72;;;7.50;99.90;;;;;;4981566;28;20058;-65
2023/11/08 04:32:49;;;;;;;7.97;2.60;;;7.50;99.90;;;;;;4980457;28;20038;-65
2023/11/08 04:35:17;;;;;;;8.77;3.17;;;7.50;99.90;;;;;;4980753;28;20041;-65
2023/11/08 04:37:45;;;;;;;7.97;3.10;;;7.60;99.90;;;;;;4982497;28;20102;-65
2023/11/08 04:40:11;;;;;;;8.45;2.55;;;7.50;99.90;;;;;;4982566;28;20031;-65
2023/11/08 04:42:37;;;;;;;8.43;2.75;;;7.50;99.90;;;;;;4980637;28;20393;-65
2023/11/08 04:45:03;;;;;;;8.27;3.22;;;7.50;99.90;;;;;;4983905;28;20386;-65
2023/11/08 04:47:28;;;;;;;8.10;3.08;;;7.50;99.90;;;;;;4979825;28;20101;-65
2023/11/08 04:49:54;;;;;;;8.27;3.10;;;7.50;99.90;;;;;;4980350;28;20632;-65
2023/11/08 04:52:20;;;;;;;11.23;3.47;;;7.50;99.90;;;;;;4982401;28;20026;-66
2023/11/08 04:54:50;;;;;;;11.82;3.80;;;7.50;99.90;;;;;;4950396;28;20026;-66
2023/11/08 04:57:18;;;;;;;12.48;2.97;;;7.50;99.90;;;;;;4979019;28;20035;-66
2023/11/08 04:59:51;;;;;;;9.38;2.80;;;7.50;99.90;;;;;;4977181;28;20070;-66
2023/11/08 05:02:18;;;;;;;8.60;3.10;;;7.40;99.90;;;;;;4980225;28;20038;-66
2023/11/08 05:04:45;;;;;;;6.20;1.88;;;7.40;99.90;;;;;;4981691;28;20109;-66
2023/11/08 05:07:12;;;;;;;11.35;3.22;;;7.40;99.90;;;;;;4978864;28;20031;-66
2023/11/08 05:09:40;;;;;;;7.43;2.20;;;7.40;99.90;;;;;;4979426;28;20060;-66
2023/11/08 05:12:09;;;;;;;8.65;3.20;;;7.30;99.90;;;;;;4979205;28;20392;-66
2023/11/08 05:14:35;;;;;;;11.30;2.87;;;7.30;99.90;;;;;;4972465;28;20057;-66
2023/11/08 05:17:01;;;;;;;9.50;3.20;;;7.30;99.90;;;;;;4973415;28;20072;-66
2023/11/08 05:19:27;;;;;;;7.65;2.85;;;7.20;99.90;;;;;;4975749;28;20146;-66
2023/11/08 05:21:53;;;;;;;9.90;2.80;;;7.20;99.90;;;;;;4977672;28;20039;-66
2023/11/08 05:24:21;;;;;;;8.02;3.13;;;7.30;99.90;;;;;;4973677;28;20042;-66
2023/11/08 05:26:47;;;;;;;11.35;2.47;;;7.30;99.90;;;;;;4974628;28;20034;-66
2023/11/08 05:29:18;;;;;;;10.00;3.33;;;7.30;99.90;;;;;;4971508;28;20026;-65
2023/11/08 05:31:44;;;;;;;10.55;2.78;;;7.40;99.90;;;;;;4966966;28;20027;-66
2023/11/08 05:34:09;;;;;;;7.53;3.00;;;7.40;99.90;;;;;;4972861;28;20506;-66
2023/11/08 05:36:36;;;;;;;10.88;3.22;;;7.40;99.90;;;;;;4975170;28;20042;-66
2023/11/08 05:39:03;;;;;;;10.57;2.75;;;7.40;99.90;;;;;;4949940;28;20035;-65
2023/11/08 05:41:30;;;;;;;11.95;3.20;;;7.40;99.90;;;;;;4977198;28;20023;-66
2023/11/08 05:43:58;;;;;;;7.22;2.72;;;7.50;99.90;;;;;;4973032;28;20034;-65
2023/11/08 05:46:28;;;;;;;10.13;3.25;;;7.50;99.90;;;;;;4977254;28;20025;-66
2023/11/08 05:48:57;;;;;;;10.48;2.97;;;7.50;99.90;;;;;;4980067;28;20034;-66
2023/11/08 05:51:25;;;;;;;12.80;3.13;;;7.50;99.90;;;;;;4975834;28;20521;-65
2023/11/08 05:53:51;;;;;;;8.10;3.25;;;7.40;99.90;;;;;;4974653;28;20014;-65
2023/11/08 05:56:17;;;;;;;15.38;3.10;;;7.40;99.90;;;;;;4980971;28;20065;-66
2023/11/08 05:58:42;;;;;;;8.75;3.00;;;7.30;99.90;;;;;;4976983;28;20054;-65
2023/11/08 06:01:11;;;;;;;7.90;2.65;;;7.30;99.90;;;;;;4974485;28;20126;-65
2023/11/08 06:03:37;;;;;;;7.05;2.97;;;7.30;99.90;;;;;;4975251;28;20030;-66
2023/11/08 06:06:03;;;;;;;8.30;2.92;;;7.40;99.90;;;;;;4976383;28;20117;-66
2023/11/08 06:08:29;;;;;;;12.20;2.97;;;7.40;99.90;;;;;;4976941;28;20051;-66
2023/11/08 06:10:54;;;;;;;12.15;2.80;;;7.40;99.90;;;;;;4979925;28;20098;-66
2023/11/08 06:13:20;;;;;;;9.00;3.13;;;7.30;99.90;;;;;;4973969;28;20032;-66
2023/11/08 06:15:45;;;;;;;7.35;2.90;;;7.30;99.90;;;;;;4976397;28;20442;-64
2023/11/08 06:18:14;;;;;;;10.75;3.30;;;7.30;99.90;;;;;;4978400;28;20062;-66
2023/11/08 06:20:39;;;;;;;8.52;2.70;;;7.30;99.90;;;;;;4977840;28;20394;-66
2023/11/08 06:23:05;;;;;;;15.48;3.65;;;7.30;99.90;;;;;;4977574;28;20038;-66
2023/11/08 06:25:32;;;;;;;9.70;2.80;;;7.30;99.90;;;;;;4950456;28;20023;-66
2023/11/08 06:27:58;;;;;;;9.55;2.78;;;7.30;99.90;;;;;;4972414;28;20089;-66
2023/11/08 06:30:24;;;;;;;9.27;2.90;;;7.20;99.90;;;;;;4983950;28;20014;-66
2023/11/08 06:32:50;;;;;;;10.45;3.00;;;7.20;99.90;;;;;;4980150;28;20041;-66
2023/11/08 06:35:15;;;;;;;11.07;2.85;;;7.20;99.90;;;;;;4984354;28;20098;-66
2023/11/08 06:37:41;;;;;;;8.07;2.75;;;7.10;99.90;;;;;;4978944;28;20500;-66
2023/11/08 06:40:09;;;;;;;8.60;2.40;;;7.20;99.90;;;;;;4981148;28;20050;-66
2023/11/08 06:42:35;;;;;;;11.23;2.72;;;7.20;99.90;;;;;;4943531;28;20154;-65
2023/11/08 06:45:04;;;;;;;6.60;2.22;;;7.30;99.90;;;;;;4978942;28;20080;-66
2023/11/08 06:47:30;;;;;;;8.00;2.70;;;7.30;99.90;;;;;;4977593;28;20038;-66
2023/11/08 06:49:56;;;;;;;7.70;2.50;;;7.30;99.90;;;;;;4976812;28;20031;-66
2023/11/08 06:52:25;;;;;;;7.78;2.40;;;7.20;99.90;;;;;;4966071;28;20679;-65
2023/11/08 06:54:51;;;;;;;8.82;2.65;;;7.30;99.90;;;;;;4975748;28;20032;-65
2023/11/08 06:57:17;;;;;;;8.52;2.65;;;7.30;99.90;;;;;;4982046;28;20034;-66
2023/11/08 06:59:42;;;;;;;11.40;2.95;;;7.30;99.90;;;;;;4948759;28;20035;-66
2023/11/08 07:02:09;;;;;;;6.88;2.13;;;7.30;99.90;;;;;;4980803;28;20027;-66
2023/11/08 07:04:34;;;;;;;8.75;2.95;;;7.40;99.90;;;;;;4983380;28;20061;-66
2023/11/08 07:07:04;;;;;;;5.53;2.00;;;7.30;99.90;;;;;;4979686;28;20034;-66
2023/11/08 07:09:30;;;;;;;13.07;2.93;;;7.30;99.90;;;;;;4982319;28;20485;-66
2023/11/08 07:11:57;;;;;;;8.90;3.03;;;7.30;99.90;;;;;;4981886;28;20270;-65
2023/11/08 07:14:23;;;;;;;11.57;2.88;;;7.30;99.90;;;;;;4981038;28;20171;-65
2023/11/08 07:16:49;;;;;;;8.98;3.22;;;7.30;99.90;;;;;;4982850;28;20509;-65
2023/11/08 07:19:15;;;;;;;8.60;2.70;;;7.40;99.90;;;;;;4975209;28;20031;-66
2023/11/08 07:21:41;;;;;;;13.13;3.83;;;7.40;99.90;;;;;;4982255;28;20098;-66
2023/11/08 07:24:07;;;;;;;9.55;2.40;;;7.40;99.90;;;;;;4979514;28;20026;-66
2023/11/08 07:26:34;;;;;;;9.98;2.38;;;7.50;99.90;;;;;;4982403;28;20026;-66
2023/11/08 07:29:03;;;;;;;9.85;2.95;;;7.60;99.90;;;;;;4980548;28;20026;-66
2023/11/08 07:31:32;;;;;;;9.23;3.10;;;7.70;99.90;;;;;;4972791;28;20019;-66
2023/11/08 07:33:58;;;;;;;8.10;2.83;;;7.80;99.90;;;;;;4981568;28;20027;-66
2023/11/08 07:36:24;;;;;;;9.68;3.03;;;7.80;99.90;;;;;;4981822;28;20085;-66
2023/11/08 07:38:50;;;;;;;7.75;2.58;;;7.90;99.90;;;;;;4979660;28;20150;-66
2023/11/08 07:41:16;;;;;;;8.50;2.90;;;7.90;99.90;;;;;;4979235;28;20019;-66
2023/11/08 07:43:45;;;;;;;10.18;2.50;;;8.00;99.90;;;;;;4979087;28;20054;-65
2023/11/08 07:46:10;;;;;;;8.30;2.85;;;8.00;99.90;;;;;;4981499;28;20041;-66
2023/11/08 07:48:36;;;;;;;8.63;2.40;;;8.10;99.90;;;;;;4981653;28;20023;-66
2023/11/08 07:51:08;;;;;;;13.48;3.13;;;8.20;99.90;;;;;;4979941;28;20038;-66
2023/11/08 07:53:33;;;;;;;9.07;2.95;;;8.30;99.90;;;;;;4978757;28;20367;-65
2023/11/08 07:55:59;;;;;;;11.23;2.33;;;8.40;99.90;;;;;;4979568;28;20034;-66
2023/11/08 07:58:25;;;;;;;7.95;2.60;;;8.50;99.90;;;;;;4979831;28;20044;-66
2023/11/08 08:00:50;;;;;;;8.45;2.85;;;8.50;99.90;;;;;;4980560;28;20730;-66
2023/11/08 08:03:16;;;;;;;12.55;3.00;;;8.50;99.90;;;;;;4980045;28;20071;-66
2023/11/08 08:05:42;;;;;;;8.95;2.40;;;8.40;99.90;;;;;;4981961;28;20139;-66
2023/11/08 08:08:09;;;;;;;11.05;2.63;;;8.40;99.90;;;;;;4979253;28;20074;-66
2023/11/08 08:10:35;;;;;;;6.78;2.13;;;8.30;99.90;;;;;;4979497;28;20064;-66
2023/11/08 08:13:05;;;;;;;10.60;2.45;;;8.30;99.90;;;;;;4980872;28;20026;-65
2023/11/08 08:15:31;;;;;;;6.72;2.65;;;8.30;99.90;;;;;;4981840;28;20023;-66
2023/11/08 08:17:57;;;;;;;7.65;2.30;;;8.30;99.90;;;;;;4974046;28;20035;-66
2023/11/08 08:20:25;;;;;;;9.85;2.40;;;8.30;99.90;;;;;;4981635;28;20049;-66
2023/11/08 08:22:51;;;;;;;8.27;2.28;;;8.50;99.90;;;;;;4981719;28;20109;-66
2023/11/08 08:25:17;;;;;;;10.75;2.30;;;8.40;99.90;;;;;;4980557;28;20646;-66
2023/11/08 08:27:42;;;;;;;10.15;2.33;;;8.50;99.90;;;;;;4978822;28;20053;-65
2023/11/08 08:30:14;;;;;;;4.97;1.70;;;8.60;99.90;;;;;;4978373;28;20027;-66
2023/11/08 08:32:47;;;;;;;6.47;2.20;;;8.80;99.90;;;;;;4980764;28;20038;-66
2023/11/08 08:35:15;;;;;;;9.15;2.40;;;9.00;99.90;;;;;;4981204;28;20124;-66
2023/11/08 08:37:41;;;;;;;8.07;2.25;;;9.10;99.90;;;;;;4973911;28;20051;-66
2023/11/08 08:40:10;;;;;;;6.88;2.15;;;9.20;99.90;;;;;;4980576;28;20081;-66
2023/11/08 08:42:40;;;;;;;6.87;2.13;;;9.40;99.90;;;;;;4947113;28;20038;-66
2023/11/08 08:45:08;;;;;;;8.18;2.17;;;9.80;99.90;;;;;;4973332;28;20110;-66
2023/11/08 08:47:37;;;;;;;9.00;2.03;;;10.00;99.90;;;;;;4957041;28;20378;-66
2023/11/08 08:50:11;;;;;;;5.53;1.75;;;10.10;99.90;;;;;;4979099;28;20339;-66
2023/11/08 08:52:39;;;;;;;7.50;2.20;;;10.20;99.90;;;;;;4978848;28;20395;-66
2023/11/08 08:55:05;;;;;;;8.85;1.83;;;10.40;99.90;;;;;;4975136;28;20049;-66
2023/11/08 08:57:31;;;;;;;9.85;2.40;;;10.50;99.90;;;;;;4978681;28;20046;-66
2023/11/08 08:59:56;;;;;;;7.68;2.00;;;10.60;99.90;;;;;;4973854;28;20074;-66
2023/11/08 09:02:23;;;;;;;8.23;1.98;;;10.70;99.90;;;;;;4978508;28;20046;-66
2023/11/08 09:04:51;;;;;;;7.97;1.95;;;11.00;99.90;;;;;;4978032;28;20069;-66
2023/11/08 09:07:17;;;;;;;7.18;1.95;;;11.30;99.90;;;;;;4977126;28;20042;-66
2023/11/08 09:09:43;;;;;;;9.70;2.28;;;11.50;99.90;;;;;;4977175;28;20051;-66
2023/11/08 09:12:08;;;;;;;9.77;1.83;;;11.60;99.90;;;;;;4979111;28;20359;-66
2023/11/08 09:14:34;;;;;;;10.15;2.30;;;11.60;99.90;;;;;;4977582;28;20034;-66
2023/11/08 09:17:01;;;;;;;7.35;2.00;;;11.60;99.90;;;;;;4978873;28;20121;-66
2023/11/08 09:19:26;;;;;;;8.23;2.20;;;11.50;99.90;;;;;;4981547;28;20392;-66
2023/11/08 09:21:52;;;;;;;9.50;1.60;;;11.50;99.90;;;;;;4972873;28;20079;-66
2023/11/08 09:24:18;;;;;;;10.50;2.20;;;11.60;99.90;;;;;;4975082;28;20032;-66
2023/11/08 09:26:45;;;;;;;8.52;1.92;;;11.80;99.90;;;;;;4977451;28;20026;-66
2023/11/08 09:29:12;;;;;;;6.03;1.58;;;11.90;99.90;;;;;;4980421;28;20026;-66
2023/11/08 09:31:38;;;;;;;9.43;3.47;;;12.10;99.90;;;;;;4980344;28;20042;-64
2023/11/08 09:34:04;;;;;;;10.63;2.17;;;12.20;99.90;;;;;;4979281;28;20026;-63
2023/11/08 09:36:30;;;;;;;12.45;2.65;;;12.10;99.90;;;;;;4945102;28;20177;-63
2023/11/08 09:38:58;;;;;;;8.85;1.80;;;11.90;99.90;;;;;;4978803;28;20526;-63
2023/11/08 09:41:24;;;;;;;9.25;1.75;;;11.90;99.90;;;;;;4978399;28;20027;-63
2023/11/08 09:43:52;;;;;;;6.32;1.35;;;12.20;99.90;;;;;;4974483;28;20177;-63
2023/11/08 09:46:20;;;;;;;7.50;1.60;;;12.60;99.90;;;;;;4979678;28;20341;-63
2023/11/08 09:48:49;;;;;;;8.35;1.70;;;12.90;99.90;;;;;;4976686;28;20064;-63
2023/11/08 09:51:17;;;;;;;7.82;1.60;;;13.20;99.90;;;;;;4976747;28;20410;-63
2023/11/08 09:53:43;;;;;;;7.53;1.50;;;13.30;99.90;;;;;;4977889;28;20026;-63
2023/11/08 09:56:11;;;;;;;6.28;1.13;;;13.00;99.90;;;;;;4976057;28;20429;-63
2023/11/08 09:58:43;;;;;;;7.07;1.50;;;12.50;99.90;;;;;;4976110;28;20037;-63
2023/11/08 10:01:15;;;;;;;6.25;1.20;;;12.30;99.90;;;;;;4977426;28;20118;-63
2023/11/08 10:03:43;;;;;;;5.70;1.48;;;12.30;99.90;;;;;;4983268;28;20030;-63
2023/11/08 10:06:09;;;;;;;5.85;1.10;;;12.50;99.90;;;;;;4980808;28;20043;-63
2023/11/08 10:08:38;;;;;;;4.63;1.23;;;12.80;99.90;;;;;;4982078;28;20053;-63
2023/11/08 10:11:10;;;;;;;18.70;1.63;;;13.30;99.90;;;;;;4982292;28;20022;-63
2023/11/08 10:13:48;;;;;;;6.47;1.80;;;13.20;99.90;;;;;;4976954;28;20110;-63
2023/11/08 10:16:18;;;;;;;4.45;1.30;;;12.70;99.90;;;;;;4979526;28;20027;-63
2023/11/08 10:18:57;;;;;;;6.57;1.55;;;12.50;99.90;;;;;;4983254;28;20346;-64
2023/11/08 10:21:25;;;;;;;7.13;1.50;;;12.30;99.90;;;;;;4982326;28;20041;-63
2023/11/08 10:23:52;;;;;;;6.05;1.48;;;12.30;99.90;;;;;;4979204;28;20062;-63
2023/11/08 10:26:21;;;;;;;8.18;1.60;;;12.50;99.90;;;;;;4980126;28;20054;-63
2023/11/08 10:29:01;;;;;;;8.20;1.63;;;12.80;99.90;;;;;;4982236;28;20025;-63
2023/11/08 10:31:48;;;;;;;11.80;1.75;;;13.10;99.90;;;;;;4983013;28;20086;-63
2023/11/08 10:34:16;;;;;;;5.82;1.60;;;13.60;99.20;;;;;;4982738;28;20072;-63
2023/11/08 10:36:44;;;;;;;5.75;1.33;;;14.10;98.80;;;;;;4980564;28;20061;-63
2023/11/08 10:39:13;;;;;;;5.53;1.45;;;14.50;96.10;;;;;;4980356;28;20155;-63
2023/11/08 10:41:42;;;;;;;7.43;1.20;;;14.80;96.20;;;;;;4982660;28;20033;-64
2023/11/08 10:44:12;;;;;;;6.30;1.40;;;15.40;92.50;;;;;;4975762;28;20031;-64
2023/11/08 10:46:41;;;;;;;8.73;1.40;;;15.80;92.20;;;;;;4981764;28;20038;-64
2023/11/08 10:49:10;;;;;;;4.90;1.20;;;15.80;92.40;;;;;;4982857;28;20110;-64
2023/11/08 10:51:40;;;;;;;4.45;1.08;;;15.70;91.10;;;;;;4982930;28;20344;-64
2023/11/08 10:54:07;;;;;;;4.15;1.17;;;15.30;87.90;;;;;;4947781;28;20069;-64
2023/11/08 10:56:34;;;;;;;3.60;1.05;;;15.00;88.00;;;;;;4981581;28;20108;-64
2023/11/08 10:59:03;;;;;;;5.82;1.40;;;14.40;90.10;;;;;;4980183;28;20034;-64
2023/11/08 11:01:31;;;;;;;6.83;1.03;;;14.30;91.40;;;;;;4979276;28;20106;-64
2023/11/08 11:04:04;;;;;;;5.25;1.40;;;14.40;91.00;;;;;;4981098;28;20027;-64
2023/11/08 11:06:34;;;;;;;7.68;1.50;;;14.50;91.80;;;;;;4981655;28;20034;-64
2023/11/08 11:09:10;;;;;;;6.50;1.63;;;14.90;86.50;;;;;;4978512;28;20043;-64
2023/11/08 11:11:42;;;;;;;4.97;1.27;;;14.90;83.40;;;;;;4980499;28;20102;-63
2023/11/08 11:14:32;;;;;;;6.38;1.92;;;14.80;87.20;;;;;;4980426;28;20027;-63
2023/11/08 11:17:10;;;;;;;6.32;1.30;;;14.70;87.00;;;;;;4978337;28;20023;-63
2023/11/08 11:19:41;;;;;;;5.47;1.13;;;14.90;84.70;;;;;;4980687;28;20034;-63
2023/11/08 11:22:10;;;;;;;5.00;1.13;;;15.30;83.00;;;;;;4977712;28;20030;-63
2023/11/08 11:24:42;;;;;;;6.22;1.30;;;15.50;82.20;;;;;;4981362;28;20030;-63
2023/11/08 11:27:10;;;;;;;9.00;1.42;;;15.60;82.90;;;;;;4976619;28;20161;-63
2023/11/08 11:29:40;;;;;;;7.30;1.25;;;15.90;81.80;;;;;;4981892;28;20057;-63
2023/11/08 11:32:33;;;;;;;9.98;1.65;;;15.70;83.00;;;;;;4975273;28;20506;-63
2023/11/08 11:35:00;;;;;;;5.90;1.50;;;15.40;84.70;;;;;;4976403;28;20482;-63
2023/11/08 11:37:26;;;;;;;4.32;1.00;;;15.60;83.00;;;;;;4980072;28;20205;-63
2023/11/08 11:39:51;;;;;;;7.40;1.35;;;15.90;81.90;;;;;;4980379;28;20494;-63
2023/11/08 11:42:20;;;;;;;12.20;1.38;;;16.20;79.60;;;;;;4978538;28;20023;-63
2023/11/08 11:44:49;;;;;;;4.43;1.17;;;15.80;78.70;;;;;;4974517;28;20081;-63
2023/11/08 11:47:30;;;;;;;4.05;1.08;;;15.70;78.00;;;;;;4979023;28;20035;-63
2023/11/08 11:50:04;;;;;;;4.88;1.20;;;15.50;80.70;;;;;;4974051;28;20066;-63
2023/11/08 11:52:33;;;;;;;3.92;1.17;;;15.20;83.10;;;;;;4979531;28;20035;-64
2023/11/08 11:55:00;;;;;;;5.47;1.33;;;15.00;79.60;;;;;;4979833;28;20031;-64
2023/11/08 11:57:28;;;;;;;6.57;1.10;;;15.00;81.70;;;;;;4974245;28;20058;-64
2023/11/08 12:00:04;;;;;;;6.20;1.25;;;15.00;81.10;;;;;;4978904;28;20584;-64
2023/11/08 12:02:30;;;;;;;4.90;1.30;;;15.10;79.80;;;;;;4976818;28;20085;-64
2023/11/08 12:04:57;;;;;;;8.52;1.27;;;15.20;79.70;;;;;;4980809;28;20030;-65
2023/11/08 12:07:23;;;;;;;5.00;1.77;;;15.50;78.80;;;;;;4945364;28;20038;-65
2023/11/08 12:09:49;;;;;;;7.32;1.50;;;15.40;77.30;;;;;;4977995;28;20046;-65
2023/11/08 12:12:28;;;;;;;4.38;1.35;;;15.30;79.30;;;;;;4979227;28;20114;-65
2023/11/08 12:14:55;;;;;;;4.57;1.38;;;15.30;77.90;;;;;;4975561;28;20027;-65
2023/11/08 12:17:20;;;;;;;6.85;1.75;;;15.30;77.50;;;;;;4980241;28;20134;-65
2023/11/08 12:19:46;;;;;;;6.85;1.25;;;15.20;76.70;;;;;;4947764;28;20125;-65
2023/11/08 12:22:12;;;;;;;6.50;1.40;;;14.50;80.00;;;;;;4978093;28;20058;-65
2023/11/08 12:24:40;;;;;;;7.80;1.60;;;13.60;84.50;;;;;;4981414;28;20105;-64
2023/11/08 12:27:06;;;;;;;4.45;1.40;;;13.00;87.00;;;;;;4976489;28;20039;-64
2023/11/08 12:29:32;;;;;;;7.97;1.55;;;12.60;88.30;;;;;;4980728;28;20049;-64
2023/11/08 12:32:02;;;;;;;7.85;1.38;;;12.60;90.50;;;;;;4978953;28;20022;-64
2023/11/08 12:34:31;;;;;;;4.13;1.33;;;12.60;92.80;;;;;;4979961;28;20034;-64
2023/11/08 12:36:59;;;;;;;8.13;1.77;;;12.70;91.50;;;;;;4974734;28;20053;-64
2023/11/08 12:39:27;;;;;;;5.55;1.30;;;12.70;91.20;;;;;;4979760;28;20546;-64
2023/11/08 12:41:55;;;;;;;3.10;1.20;;;12.80;91.30;;;;;;4979908;28;20084;-64
2023/11/08 12:44:22;;;;;;;5.45;1.45;;;13.30;90.00;;;;;;4977856;28;20093;-64
2023/11/08 12:46:53;;;;;;;4.80;1.40;;;13.60;86.40;;;;;;4980065;28;20022;-64
2023/11/08 12:49:33;;;;;;;4.88;1.25;;;13.90;84.00;;;;;;4977307;28;20057;-64
2023/11/08 12:52:02;;;;;;;8.50;1.23;;;14.30;81.90;;;;;;4977699;28;20034;-64